sensor_id;sensor_type;location;lat;lon;timestamp;pressure;altitude;pressure_sealevel;temperature;humidity
55066;BME280;40964;42.114;24.220;2023-07-13T00:02:10;97916.84;;;25.31;55.95
55066;BME280;40964;42.114;24.220;2023-07-13T00:04:35;97913.66;;;25.29;55.92
55066;BME280;40964;42.114;24.220;2023-07-13T00:07:01;97913.31;;;25.22;56.96
55066;BME280;40964;42.114;24.220;2023-07-13T00:09:27;97903.25;;;25.05;57.61
55066;BME280;40964;42.114;24.220;2023-07-13T00:11:55;97900.06;;;25.03;57.22
55066;BME280;40964;42.114;24.220;2023-07-13T00:14:22;97903.63;;;24.98;57.59
55066;BME280;40964;42.114;24.220;2023-07-13T00:16:48;97901.78;;;24.99;57.09
55066;BME280;40964;42.114;24.220;2023-07-13T00:19:13;97886.34;;;24.90;56.85
55066;BME280;40964;42.114;24.220;2023-07-13T00:21:39;97899.63;;;24.87;57.57
55066;BME280;40964;42.114;24.220;2023-07-13T00:24:06;97898.34;;;24.84;57.16
55066;BME280;40964;42.114;24.220;2023-07-13T00:26:33;97892.47;;;24.82;57.03
55066;BME280;40964;42.114;24.220;2023-07-13T00:28:59;97895.75;;;24.79;56.93
55066;BME280;40964;42.114;24.220;2023-07-13T00:31:25;97898.09;;;24.72;57.38
55066;BME280;40964;42.114;24.220;2023-07-13T00:33:51;97896.16;;;24.64;57.45
55066;BME280;40964;42.114;24.220;2023-07-13T00:36:16;97885.88;;;24.66;57.97
55066;BME280;40964;42.114;24.220;2023-07-13T00:38:42;97885.81;;;24.57;57.43
55066;BME280;40964;42.114;24.220;2023-07-13T00:41:08;97882.38;;;24.66;57.70
55066;BME280;40964;42.114;24.220;2023-07-13T00:43:34;97888.94;;;24.73;57.63
55066;BME280;40964;42.114;24.220;2023-07-13T00:46:09;97886.25;;;24.73;56.58
55066;BME280;40964;42.114;24.220;2023-07-13T00:48:36;97871.31;;;24.67;57.50
55066;BME280;40964;42.114;24.220;2023-07-13T00:51:03;97882.06;;;24.67;57.72
55066;BME280;40964;42.114;24.220;2023-07-13T00:53:31;97882.88;;;24.68;57.90
55066;BME280;40964;42.114;24.220;2023-07-13T00:55:58;97882.69;;;24.64;58.02
55066;BME280;40964;42.114;24.220;2023-07-13T00:58:25;97878.91;;;24.65;58.33
55066;BME280;40964;42.114;24.220;2023-07-13T01:00:51;97877.25;;;24.55;58.55
55066;BME280;40964;42.114;24.220;2023-07-13T01:03:18;97869.97;;;24.56;58.17
55066;BME280;40964;42.114;24.220;2023-07-13T01:05:43;97866.03;;;24.53;58.48
55066;BME280;40964;42.114;24.220;2023-07-13T01:08:12;97876.41;;;24.46;58.43
55066;BME280;40964;42.114;24.220;2023-07-13T01:10:37;97870.22;;;24.46;58.32
55066;BME280;40964;42.114;24.220;2023-07-13T01:13:09;97869.06;;;24.38;58.08
55066;BME280;40964;42.114;24.220;2023-07-13T01:15:42;97873.22;;;24.30;57.86
55066;BME280;40964;42.114;24.220;2023-07-13T01:18:13;97871.25;;;24.22;58.64
55066;BME280;40964;42.114;24.220;2023-07-13T01:20:40;97863.13;;;24.14;58.86
55066;BME280;40964;42.114;24.220;2023-07-13T01:23:08;97871.72;;;24.02;59.39
55066;BME280;40964;42.114;24.220;2023-07-13T01:25:34;97864.84;;;23.96;59.71
55066;BME280;40964;42.114;24.220;2023-07-13T01:28:02;97858.78;;;23.90;59.60
55066;BME280;40964;42.114;24.220;2023-07-13T01:30:27;97851.41;;;23.96;59.28
55066;BME280;40964;42.114;24.220;2023-07-13T01:32:52;97862.06;;;23.87;59.70
55066;BME280;40964;42.114;24.220;2023-07-13T01:35:18;97850.75;;;23.76;59.87
55066;BME280;40964;42.114;24.220;2023-07-13T01:37:43;97861.59;;;23.85;60.24
55066;BME280;40964;42.114;24.220;2023-07-13T01:40:10;97852.91;;;23.88;60.70
55066;BME280;40964;42.114;24.220;2023-07-13T01:42:36;97858.28;;;23.88;61.36
55066;BME280;40964;42.114;24.220;2023-07-13T01:45:02;97853.03;;;23.83;61.81
55066;BME280;40964;42.114;24.220;2023-07-13T01:47:29;97847.69;;;23.69;60.76
55066;BME280;40964;42.114;24.220;2023-07-13T01:49:58;97858.53;;;23.64;60.34
55066;BME280;40964;42.114;24.220;2023-07-13T01:52:24;97859.34;;;23.65;61.35
55066;BME280;40964;42.114;24.220;2023-07-13T01:54:49;97846.69;;;23.65;61.14
55066;BME280;40964;42.114;24.220;2023-07-13T01:57:15;97865.59;;;23.60;61.71
55066;BME280;40964;42.114;24.220;2023-07-13T01:59:40;97871.44;;;23.48;61.59
55066;BME280;40964;42.114;24.220;2023-07-13T02:02:06;97875.69;;;23.36;61.35
55066;BME280;40964;42.114;24.220;2023-07-13T02:04:32;97878.97;;;23.33;61.94
55066;BME280;40964;42.114;24.220;2023-07-13T02:06:58;97879.56;;;23.30;61.48
55066;BME280;40964;42.114;24.220;2023-07-13T02:09:23;97879.47;;;23.21;61.60
55066;BME280;40964;42.114;24.220;2023-07-13T02:11:49;97887.41;;;23.26;61.83
55066;BME280;40964;42.114;24.220;2023-07-13T02:14:14;97889.72;;;23.33;62.17
55066;BME280;40964;42.114;24.220;2023-07-13T02:16:41;97884.25;;;23.38;62.39
55066;BME280;40964;42.114;24.220;2023-07-13T02:19:07;97894.88;;;23.43;62.27
55066;BME280;40964;42.114;24.220;2023-07-13T02:21:33;97803.28;;;22.89;61.41
55066;BME280;40964;42.114;24.220;2023-07-13T02:23:58;97892.50;;;23.41;62.54
55066;BME280;40964;42.114;24.220;2023-07-13T02:26:25;97880.56;;;23.34;63.62
55066;BME280;40964;42.114;24.220;2023-07-13T02:28:51;97880.97;;;23.41;62.70
55066;BME280;40964;42.114;24.220;2023-07-13T02:31:17;97881.16;;;23.44;63.05
55066;BME280;40964;42.114;24.220;2023-07-13T02:33:42;97893.91;;;23.39;63.01
55066;BME280;40964;42.114;24.220;2023-07-13T02:36:08;97895.78;;;23.38;62.46
55066;BME280;40964;42.114;24.220;2023-07-13T02:38:35;97897.94;;;23.36;63.26
55066;BME280;40964;42.114;24.220;2023-07-13T02:41:02;97903.13;;;23.33;63.21
55066;BME280;40964;42.114;24.220;2023-07-13T02:43:28;97899.13;;;23.16;63.38
55066;BME280;40964;42.114;24.220;2023-07-13T02:45:55;97901.81;;;23.16;63.19
55066;BME280;40964;42.114;24.220;2023-07-13T02:48:20;97903.19;;;23.14;62.70
55066;BME280;40964;42.114;24.220;2023-07-13T02:50:46;97916.69;;;23.09;65.29
55066;BME280;40964;42.114;24.220;2023-07-13T02:53:11;97913.22;;;23.08;65.02
55066;BME280;40964;42.114;24.220;2023-07-13T02:55:37;97908.13;;;23.07;64.05
55066;BME280;40964;42.114;24.220;2023-07-13T02:58:02;97911.31;;;23.09;64.29
55066;BME280;40964;42.114;24.220;2023-07-13T03:00:28;97912.03;;;23.01;64.69
55066;BME280;40964;42.114;24.220;2023-07-13T03:02:54;97916.06;;;22.98;64.77
55066;BME280;40964;42.114;24.220;2023-07-13T03:05:22;97919.13;;;22.91;64.87
55066;BME280;40964;42.114;24.220;2023-07-13T03:07:47;97908.53;;;22.81;66.07
55066;BME280;40964;42.114;24.220;2023-07-13T03:10:13;97911.72;;;22.64;66.83
55066;BME280;40964;42.114;24.220;2023-07-13T03:12:38;97910.16;;;22.63;66.71
55066;BME280;40964;42.114;24.220;2023-07-13T03:15:04;97908.00;;;22.65;66.21
55066;BME280;40964;42.114;24.220;2023-07-13T03:17:30;97905.56;;;22.64;65.57
55066;BME280;40964;42.114;24.220;2023-07-13T03:19:55;97904.78;;;22.63;66.61
55066;BME280;40964;42.114;24.220;2023-07-13T03:22:21;97906.91;;;22.66;67.04
55066;BME280;40964;42.114;24.220;2023-07-13T03:24:46;97906.16;;;22.61;66.76
55066;BME280;40964;42.114;24.220;2023-07-13T03:27:12;97897.94;;;22.57;66.14
55066;BME280;40964;42.114;24.220;2023-07-13T03:29:38;97904.66;;;22.55;67.08
55066;BME280;40964;42.114;24.220;2023-07-13T03:32:03;97902.69;;;22.60;67.45
55066;BME280;40964;42.114;24.220;2023-07-13T03:34:30;97906.00;;;22.71;66.34
55066;BME280;40964;42.114;24.220;2023-07-13T03:36:55;97900.28;;;22.78;66.30
55066;BME280;40964;42.114;24.220;2023-07-13T03:39:21;97914.28;;;22.93;65.39
55066;BME280;40964;42.114;24.220;2023-07-13T03:41:47;97919.16;;;23.05;64.68
55066;BME280;40964;42.114;24.220;2023-07-13T03:44:12;97914.72;;;23.14;64.58
55066;BME280;40964;42.114;24.220;2023-07-13T03:46:38;97912.94;;;23.23;65.30
55066;BME280;40964;42.114;24.220;2023-07-13T03:49:04;97916.72;;;23.36;65.69
55066;BME280;40964;42.114;24.220;2023-07-13T03:51:30;97897.00;;;23.46;64.77
55066;BME280;40964;42.114;24.220;2023-07-13T03:53:56;97910.03;;;23.66;63.47
55066;BME280;40964;42.114;24.220;2023-07-13T03:56:22;97917.28;;;23.79;64.60
55066;BME280;40964;42.114;24.220;2023-07-13T03:58:49;97922.84;;;23.97;63.82
55066;BME280;40964;42.114;24.220;2023-07-13T04:01:17;97905.41;;;24.08;68.04
55066;BME280;40964;42.114;24.220;2023-07-13T04:03:43;97917.56;;;24.19;67.25
55066;BME280;40964;42.114;24.220;2023-07-13T04:06:20;97914.28;;;24.36;65.89
55066;BME280;40964;42.114;24.220;2023-07-13T04:08:54;97901.22;;;24.66;64.50
55066;BME280;40964;42.114;24.220;2023-07-13T04:11:22;97906.84;;;25.00;62.43
55066;BME280;40964;42.114;24.220;2023-07-13T04:13:49;97900.72;;;25.39;60.83
55066;BME280;40964;42.114;24.220;2023-07-13T04:16:15;97909.78;;;25.83;60.71
55066;BME280;40964;42.114;24.220;2023-07-13T04:18:41;97905.41;;;26.13;58.37
55066;BME280;40964;42.114;24.220;2023-07-13T04:21:07;97901.53;;;26.45;57.32
55066;BME280;40964;42.114;24.220;2023-07-13T04:23:34;97886.25;;;26.75;56.66
55066;BME280;40964;42.114;24.220;2023-07-13T04:26:00;97899.38;;;27.20;56.47
55066;BME280;40964;42.114;24.220;2023-07-13T04:28:26;97893.53;;;27.56;55.49
55066;BME280;40964;42.114;24.220;2023-07-13T04:30:52;97895.41;;;27.94;54.93
55066;BME280;40964;42.114;24.220;2023-07-13T04:33:18;97902.25;;;28.21;52.99
55066;BME280;40964;42.114;24.220;2023-07-13T04:35:49;97902.47;;;28.37;51.01
55066;BME280;40964;42.114;24.220;2023-07-13T04:38:14;97903.50;;;28.65;50.29
55066;BME280;40964;42.114;24.220;2023-07-13T04:40:44;97900.47;;;28.88;50.27
55066;BME280;40964;42.114;24.220;2023-07-13T04:43:10;97906.94;;;28.95;50.02
55066;BME280;40964;42.114;24.220;2023-07-13T04:45:36;97906.97;;;29.07;50.29
55066;BME280;40964;42.114;24.220;2023-07-13T04:48:01;97908.69;;;29.12;49.23
55066;BME280;40964;42.114;24.220;2023-07-13T04:50:27;97917.59;;;29.13;48.96
55066;BME280;40964;42.114;24.220;2023-07-13T04:52:52;97910.72;;;29.15;49.74
55066;BME280;40964;42.114;24.220;2023-07-13T04:55:19;97907.91;;;29.24;49.28
55066;BME280;40964;42.114;24.220;2023-07-13T04:57:45;97915.50;;;29.30;49.63
55066;BME280;40964;42.114;24.220;2023-07-13T05:00:12;97926.53;;;29.25;49.29
55066;BME280;40964;42.114;24.220;2023-07-13T05:02:38;97920.84;;;29.51;49.27
55066;BME280;40964;42.114;24.220;2023-07-13T05:05:05;97925.50;;;29.75;49.61
55066;BME280;40964;42.114;24.220;2023-07-13T05:07:31;97928.66;;;29.65;47.45
55066;BME280;40964;42.114;24.220;2023-07-13T05:10:01;97934.88;;;29.78;47.58
55066;BME280;40964;42.114;24.220;2023-07-13T05:12:27;97934.09;;;30.02;46.10
55066;BME280;40964;42.114;24.220;2023-07-13T05:14:52;97937.59;;;30.02;45.81
55066;BME280;40964;42.114;24.220;2023-07-13T05:17:18;97936.44;;;30.28;46.08
55066;BME280;40964;42.114;24.220;2023-07-13T05:19:43;97935.19;;;30.37;46.18
55066;BME280;40964;42.114;24.220;2023-07-13T05:22:09;97936.22;;;30.33;47.35
55066;BME280;40964;42.114;24.220;2023-07-13T05:24:35;97937.50;;;30.11;44.80
55066;BME280;40964;42.114;24.220;2023-07-13T05:27:00;97930.91;;;30.00;46.35
55066;BME280;40964;42.114;24.220;2023-07-13T05:29:26;97937.69;;;30.18;46.52
55066;BME280;40964;42.114;24.220;2023-07-13T05:31:51;97936.91;;;30.17;47.13
55066;BME280;40964;42.114;24.220;2023-07-13T05:34:17;97930.56;;;30.26;46.82
55066;BME280;40964;42.114;24.220;2023-07-13T05:36:43;97934.97;;;30.06;46.51
55066;BME280;40964;42.114;24.220;2023-07-13T05:39:08;97939.75;;;30.21;46.43
55066;BME280;40964;42.114;24.220;2023-07-13T05:41:35;97935.47;;;30.08;45.90
55066;BME280;40964;42.114;24.220;2023-07-13T05:44:01;97943.78;;;30.27;46.48
55066;BME280;40964;42.114;24.220;2023-07-13T05:46:26;97951.50;;;30.13;46.81
55066;BME280;40964;42.114;24.220;2023-07-13T05:48:52;97951.94;;;30.27;44.36
55066;BME280;40964;42.114;24.220;2023-07-13T05:51:17;97937.34;;;30.32;44.37
55066;BME280;40964;42.114;24.220;2023-07-13T05:53:43;97950.22;;;30.47;45.54
55066;BME280;40964;42.114;24.220;2023-07-13T05:56:08;97948.28;;;30.47;44.83
55066;BME280;40964;42.114;24.220;2023-07-13T05:58:34;97955.34;;;30.64;44.87
55066;BME280;40964;42.114;24.220;2023-07-13T06:01:11;97955.94;;;30.70;45.22
55066;BME280;40964;42.114;24.220;2023-07-13T06:03:37;97948.94;;;30.69;43.51
55066;BME280;40964;42.114;24.220;2023-07-13T06:06:07;97954.50;;;30.88;44.62
55066;BME280;40964;42.114;24.220;2023-07-13T06:08:33;97961.28;;;30.94;43.59
55066;BME280;40964;42.114;24.220;2023-07-13T06:11:16;97959.34;;;30.95;43.31
55066;BME280;40964;42.114;24.220;2023-07-13T06:13:42;97960.19;;;31.11;44.59
55066;BME280;40964;42.114;24.220;2023-07-13T06:16:08;97951.44;;;31.18;43.42
55066;BME280;40964;42.114;24.220;2023-07-13T06:18:35;97963.84;;;31.31;42.28
55066;BME280;40964;42.114;24.220;2023-07-13T06:21:09;97954.41;;;31.56;44.16
55066;BME280;40964;42.114;24.220;2023-07-13T06:23:34;97955.03;;;31.50;42.53
55066;BME280;40964;42.114;24.220;2023-07-13T06:26:00;97954.84;;;31.58;43.90
55066;BME280;40964;42.114;24.220;2023-07-13T06:28:26;97956.84;;;31.61;41.43
55066;BME280;40964;42.114;24.220;2023-07-13T06:30:52;97951.69;;;31.72;42.35
55066;BME280;40964;42.114;24.220;2023-07-13T06:33:17;97945.13;;;31.73;41.78
55066;BME280;40964;42.114;24.220;2023-07-13T06:35:42;97938.34;;;31.67;41.31
55066;BME280;40964;42.114;24.220;2023-07-13T06:38:08;97945.38;;;31.68;42.13
55066;BME280;40964;42.114;24.220;2023-07-13T06:40:34;97952.31;;;31.97;41.76
55066;BME280;40964;42.114;24.220;2023-07-13T06:42:59;97948.66;;;32.25;41.50
55066;BME280;40964;42.114;24.220;2023-07-13T06:45:24;97952.97;;;32.61;40.62
55066;BME280;40964;42.114;24.220;2023-07-13T06:47:50;97953.25;;;32.36;40.57
55066;BME280;40964;42.114;24.220;2023-07-13T06:50:15;97958.59;;;32.52;40.67
55066;BME280;40964;42.114;24.220;2023-07-13T06:52:41;97957.19;;;32.78;39.13
55066;BME280;40964;42.114;24.220;2023-07-13T06:55:07;97959.25;;;33.00;38.92
55066;BME280;40964;42.114;24.220;2023-07-13T06:57:33;97965.25;;;33.09;38.58
55066;BME280;40964;42.114;24.220;2023-07-13T06:59:58;97951.38;;;32.79;39.22
55066;BME280;40964;42.114;24.220;2023-07-13T07:02:24;97952.91;;;32.96;40.16
55066;BME280;40964;42.114;24.220;2023-07-13T07:04:49;97959.38;;;32.88;38.15
55066;BME280;40964;42.114;24.220;2023-07-13T07:07:15;97948.16;;;33.12;38.31
55066;BME280;40964;42.114;24.220;2023-07-13T07:09:41;97953.16;;;33.29;40.21
55066;BME280;40964;42.114;24.220;2023-07-13T07:12:06;97958.75;;;33.59;37.88
55066;BME280;40964;42.114;24.220;2023-07-13T07:14:32;97962.34;;;33.41;37.83
55066;BME280;40964;42.114;24.220;2023-07-13T07:16:59;97960.75;;;33.40;37.99
55066;BME280;40964;42.114;24.220;2023-07-13T07:19:25;97957.44;;;33.73;37.59
55066;BME280;40964;42.114;24.220;2023-07-13T07:21:50;97952.94;;;33.84;37.36
55066;BME280;40964;42.114;24.220;2023-07-13T07:24:15;97954.13;;;33.86;36.36
55066;BME280;40964;42.114;24.220;2023-07-13T07:26:41;97955.06;;;33.94;36.11
55066;BME280;40964;42.114;24.220;2023-07-13T07:29:06;97955.06;;;34.21;35.48
55066;BME280;40964;42.114;24.220;2023-07-13T07:31:32;97954.28;;;34.20;35.07
55066;BME280;40964;42.114;24.220;2023-07-13T07:33:57;97958.50;;;34.40;36.09
55066;BME280;40964;42.114;24.220;2023-07-13T07:36:23;97949.25;;;34.79;33.34
55066;BME280;40964;42.114;24.220;2023-07-13T07:38:48;97943.56;;;34.61;34.02
55066;BME280;40964;42.114;24.220;2023-07-13T07:41:14;97938.50;;;34.63;33.95
55066;BME280;40964;42.114;24.220;2023-07-13T07:43:39;97937.47;;;34.75;34.36
55066;BME280;40964;42.114;24.220;2023-07-13T07:46:05;97935.72;;;34.89;34.54
55066;BME280;40964;42.114;24.220;2023-07-13T07:48:31;97940.03;;;35.31;35.54
55066;BME280;40964;42.114;24.220;2023-07-13T07:50:56;97927.34;;;35.49;33.15
55066;BME280;40964;42.114;24.220;2023-07-13T07:53:22;97931.28;;;36.03;34.34
55066;BME280;40964;42.114;24.220;2023-07-13T07:55:47;97921.66;;;36.24;32.27
55066;BME280;40964;42.114;24.220;2023-07-13T07:58:13;97918.97;;;36.34;32.29
55066;BME280;40964;42.114;24.220;2023-07-13T08:00:39;97914.72;;;36.41;33.41
55066;BME280;40964;42.114;24.220;2023-07-13T08:03:05;97918.34;;;36.62;31.30
55066;BME280;40964;42.114;24.220;2023-07-13T08:05:31;97914.47;;;36.78;32.75
55066;BME280;40964;42.114;24.220;2023-07-13T08:07:56;97914.09;;;36.83;31.08
55066;BME280;40964;42.114;24.220;2023-07-13T08:10:22;97915.91;;;36.43;30.35
55066;BME280;40964;42.114;24.220;2023-07-13T08:12:47;97912.13;;;36.76;30.93
55066;BME280;40964;42.114;24.220;2023-07-13T08:15:14;97915.25;;;36.78;31.26
55066;BME280;40964;42.114;24.220;2023-07-13T08:17:41;97913.28;;;36.75;30.74
55066;BME280;40964;42.114;24.220;2023-07-13T08:20:07;97911.78;;;36.85;31.00
55066;BME280;40964;42.114;24.220;2023-07-13T08:25:08;97923.22;;;37.12;30.14
55066;BME280;40964;42.114;24.220;2023-07-13T08:27:34;97914.16;;;37.11;28.93
55066;BME280;40964;42.114;24.220;2023-07-13T08:29:59;97918.13;;;37.25;29.16
55066;BME280;40964;42.114;24.220;2023-07-13T08:32:27;97917.38;;;37.45;29.12
55066;BME280;40964;42.114;24.220;2023-07-13T08:34:53;97920.53;;;37.94;29.15
55066;BME280;40964;42.114;24.220;2023-07-13T08:37:19;97907.56;;;38.05;28.32
55066;BME280;40964;42.114;24.220;2023-07-13T08:39:45;97907.88;;;38.36;29.34
55066;BME280;40964;42.114;24.220;2023-07-13T08:45:19;97914.44;;;38.70;28.49
55066;BME280;40964;42.114;24.220;2023-07-13T08:51:36;97907.19;;;37.96;27.12
55066;BME280;40964;42.114;24.220;2023-07-13T08:53:39;97895.78;;;38.22;27.67
55066;BME280;40964;42.114;24.220;2023-07-13T08:56:11;97898.47;;;38.33;27.06
55066;BME280;40964;42.114;24.220;2023-07-13T08:58:41;97892.44;;;38.67;27.46
55066;BME280;40964;42.114;24.220;2023-07-13T09:04:08;97887.75;;;39.33;29.04
55066;BME280;40964;42.114;24.220;2023-07-13T09:06:59;97878.38;;;39.24;25.90
55066;BME280;40964;42.114;24.220;2023-07-13T09:11:56;97879.38;;;38.88;26.25
55066;BME280;40964;42.114;24.220;2023-07-13T09:14:41;97871.81;;;39.03;24.00
55066;BME280;40964;42.114;24.220;2023-07-13T09:17:30;97864.66;;;39.20;23.14
55066;BME280;40964;42.114;24.220;2023-07-13T09:20:05;97866.34;;;39.03;24.01
55066;BME280;40964;42.114;24.220;2023-07-13T09:22:37;97862.50;;;38.86;24.59
55066;BME280;40964;42.114;24.220;2023-07-13T09:27:43;97848.69;;;39.49;23.41
55066;BME280;40964;42.114;24.220;2023-07-13T09:32:40;97846.81;;;39.80;23.05
55066;BME280;40964;42.114;24.220;2023-07-13T09:35:12;97837.00;;;39.79;23.73
55066;BME280;40964;42.114;24.220;2023-07-13T09:37:39;97839.47;;;40.08;23.13
55066;BME280;40964;42.114;24.220;2023-07-13T09:40:36;97821.91;;;40.28;21.71
55066;BME280;40964;42.114;24.220;2023-07-13T09:42:59;97825.94;;;40.54;22.99
55066;BME280;40964;42.114;24.220;2023-07-13T09:45:29;97821.19;;;40.82;23.27
55066;BME280;40964;42.114;24.220;2023-07-13T09:48:02;97821.66;;;41.04;24.89
55066;BME280;40964;42.114;24.220;2023-07-13T09:50:29;97820.88;;;41.03;22.83
55066;BME280;40964;42.114;24.220;2023-07-13T09:52:54;97812.84;;;41.12;22.63
55066;BME280;40964;42.114;24.220;2023-07-13T09:57:49;97806.63;;;41.32;21.69
55066;BME280;40964;42.114;24.220;2023-07-13T10:00:23;97807.56;;;41.22;22.85
55066;BME280;40964;42.114;24.220;2023-07-13T10:02:59;97793.06;;;41.18;21.95
55066;BME280;40964;42.114;24.220;2023-07-13T10:05:25;97785.44;;;40.75;23.93
55066;BME280;40964;42.114;24.220;2023-07-13T10:07:51;97779.97;;;40.98;25.78
55066;BME280;40964;42.114;24.220;2023-07-13T10:10:19;97781.63;;;41.16;23.64
55066;BME280;40964;42.114;24.220;2023-07-13T10:12:46;97791.97;;;40.84;24.61
55066;BME280;40964;42.114;24.220;2023-07-13T10:15:24;97774.03;;;41.00;23.30
55066;BME280;40964;42.114;24.220;2023-07-13T10:17:52;97790.09;;;40.54;23.46
55066;BME280;40964;42.114;24.220;2023-07-13T10:20:18;97790.97;;;40.48;23.28
55066;BME280;40964;42.114;24.220;2023-07-13T10:22:53;97788.88;;;40.25;23.01
55066;BME280;40964;42.114;24.220;2023-07-13T10:25:22;97793.72;;;40.17;23.44
55066;BME280;40964;42.114;24.220;2023-07-13T10:28:43;97780.72;;;40.18;23.41
55066;BME280;40964;42.114;24.220;2023-07-13T10:30:45;97775.19;;;40.18;23.19
55066;BME280;40964;42.114;24.220;2023-07-13T10:33:12;97785.50;;;40.44;24.06
55066;BME280;40964;42.114;24.220;2023-07-13T10:35:43;97776.13;;;40.35;26.45
55066;BME280;40964;42.114;24.220;2023-07-13T10:38:21;97768.53;;;40.42;24.78
55066;BME280;40964;42.114;24.220;2023-07-13T10:40:51;97779.50;;;40.19;23.64
55066;BME280;40964;42.114;24.220;2023-07-13T10:43:25;97780.94;;;39.96;23.68
55066;BME280;40964;42.114;24.220;2023-07-13T10:45:52;97779.78;;;39.94;24.49
55066;BME280;40964;42.114;24.220;2023-07-13T10:48:20;97771.53;;;39.94;24.03
55066;BME280;40964;42.114;24.220;2023-07-13T10:50:49;97769.47;;;40.32;26.01
55066;BME280;40964;42.114;24.220;2023-07-13T10:53:21;97768.59;;;40.39;24.19
55066;BME280;40964;42.114;24.220;2023-07-13T11:03:33;97761.72;;;39.93;23.35
55066;BME280;40964;42.114;24.220;2023-07-13T11:06:15;97759.69;;;39.97;24.35
55066;BME280;40964;42.114;24.220;2023-07-13T11:18:51;97750.44;;;40.45;23.89
55066;BME280;40964;42.114;24.220;2023-07-13T11:21:20;97749.09;;;40.26;24.10
55066;BME280;40964;42.114;24.220;2023-07-13T11:23:54;97744.38;;;40.26;24.37
55066;BME280;40964;42.114;24.220;2023-07-13T11:31:58;97730.75;;;40.70;23.25
55066;BME280;40964;42.114;24.220;2023-07-13T11:34:31;97730.84;;;40.36;24.21
55066;BME280;40964;42.114;24.220;2023-07-13T11:36:59;97739.53;;;40.61;23.92
55066;BME280;40964;42.114;24.220;2023-07-13T11:39:34;97742.00;;;40.55;23.17
55066;BME280;40964;42.114;24.220;2023-07-13T11:42:02;97731.09;;;40.48;24.48
55066;BME280;40964;42.114;24.220;2023-07-13T11:44:30;97737.69;;;40.24;23.94
55066;BME280;40964;42.114;24.220;2023-07-13T11:46:58;97727.63;;;40.44;23.76
55066;BME280;40964;42.114;24.220;2023-07-13T11:49:30;97732.56;;;40.53;24.21
55066;BME280;40964;42.114;24.220;2023-07-13T11:51:57;97732.44;;;40.64;24.53
55066;BME280;40964;42.114;24.220;2023-07-13T11:54:32;97718.16;;;40.69;22.58
55066;BME280;40964;42.114;24.220;2023-07-13T11:57:19;97715.22;;;41.26;25.35
55066;BME280;40964;42.114;24.220;2023-07-13T11:59:50;97706.25;;;41.42;22.22
55066;BME280;40964;42.114;24.220;2023-07-13T12:02:26;97707.47;;;41.41;21.59
55066;BME280;40964;42.114;24.220;2023-07-13T12:04:53;97703.66;;;41.11;21.57
55066;BME280;40964;42.114;24.220;2023-07-13T12:07:19;97698.28;;;40.81;22.40
55066;BME280;40964;42.114;24.220;2023-07-13T12:09:45;97697.38;;;41.11;22.30
55066;BME280;40964;42.114;24.220;2023-07-13T12:12:13;97694.59;;;41.11;21.97
55066;BME280;40964;42.114;24.220;2023-07-13T12:14:39;97686.25;;;41.15;21.30
55066;BME280;40964;42.114;24.220;2023-07-13T12:17:20;97680.91;;;41.27;20.57
55066;BME280;40964;42.114;24.220;2023-07-13T12:19:47;97677.38;;;41.47;21.11
55066;BME280;40964;42.114;24.220;2023-07-13T12:22:14;97681.19;;;41.33;21.27
55066;BME280;40964;42.114;24.220;2023-07-13T12:24:41;97674.94;;;41.52;20.90
55066;BME280;40964;42.114;24.220;2023-07-13T12:27:22;97668.25;;;41.30;21.21
55066;BME280;40964;42.114;24.220;2023-07-13T12:30:00;97654.59;;;41.43;20.84
55066;BME280;40964;42.114;24.220;2023-07-13T12:32:26;97664.91;;;41.78;22.13
55066;BME280;40964;42.114;24.220;2023-07-13T12:35:15;97662.66;;;42.09;22.83
55066;BME280;40964;42.114;24.220;2023-07-13T12:37:46;97664.94;;;42.47;22.19
55066;BME280;40964;42.114;24.220;2023-07-13T12:40:19;97664.44;;;42.68;21.18
55066;BME280;40964;42.114;24.220;2023-07-13T12:42:49;97661.00;;;42.64;21.38
55066;BME280;40964;42.114;24.220;2023-07-13T12:45:27;97655.78;;;42.83;23.06
55066;BME280;40964;42.114;24.220;2023-07-13T12:47:56;97654.53;;;42.55;21.53
55066;BME280;40964;42.114;24.220;2023-07-13T12:50:30;97651.91;;;42.47;20.99
55066;BME280;40964;42.114;24.220;2023-07-13T12:53:02;97642.69;;;42.02;22.36
55066;BME280;40964;42.114;24.220;2023-07-13T12:55:29;97635.63;;;42.01;22.42
55066;BME280;40964;42.114;24.220;2023-07-13T12:57:58;97634.50;;;41.98;21.61
55066;BME280;40964;42.114;24.220;2023-07-13T13:00:30;97651.84;;;42.35;23.43
55066;BME280;40964;42.114;24.220;2023-07-13T13:03:07;97642.31;;;42.36;21.77
55066;BME280;40964;42.114;24.220;2023-07-13T13:05:37;97639.56;;;42.52;22.52
55066;BME280;40964;42.114;24.220;2023-07-13T13:08:03;97642.13;;;42.75;21.94
55066;BME280;40964;42.114;24.220;2023-07-13T13:10:28;97631.44;;;42.61;22.20
55066;BME280;40964;42.114;24.220;2023-07-13T13:12:54;97637.31;;;42.47;22.91
55066;BME280;40964;42.114;24.220;2023-07-13T13:15:20;97633.31;;;42.48;22.24
55066;BME280;40964;42.114;24.220;2023-07-13T13:17:47;97625.56;;;42.43;23.05
55066;BME280;40964;42.114;24.220;2023-07-13T13:20:20;97629.72;;;42.35;21.94
55066;BME280;40964;42.114;24.220;2023-07-13T13:22:46;97626.00;;;42.58;21.47
55066;BME280;40964;42.114;24.220;2023-07-13T13:25:13;97621.19;;;42.91;22.68
55066;BME280;40964;42.114;24.220;2023-07-13T13:27:41;97611.47;;;43.15;20.61
55066;BME280;40964;42.114;24.220;2023-07-13T13:30:11;97611.19;;;42.81;21.77
55066;BME280;40964;42.114;24.220;2023-07-13T13:32:39;97621.31;;;42.22;21.59
55066;BME280;40964;42.114;24.220;2023-07-13T13:35:05;97617.50;;;42.00;22.49
55066;BME280;40964;42.114;24.220;2023-07-13T13:37:31;97612.09;;;41.76;22.52
55066;BME280;40964;42.114;24.220;2023-07-13T13:39:57;97607.63;;;41.62;23.10